VPCOH LRCL-LIRA
Flight info
| Callsign | VPCOH |
|---|---|
| Flight time | 1h 39m |
| Altitude | 40000 |
| Route | ELROM DCT DIRER DCT PEVON DCT VELUG/N0384F190 Z924 MOPUV |
| Aircraft | B738/M-SDE2E3FGHIRWXY/LB1 |
Departure
| Time | 2026-05-07 01:59 |
|---|---|
| Airport | Avram Iancu Cluj International Airport (LRCL) |
Arrival
| Time | 2026-05-07 03:39 |
|---|---|
| Airport | Ciampino–G. B. Pastine International Airport (LIRA) |
| Time | Latitude | Longitude | Altitude | Speed | Heading |
|---|---|---|---|---|---|
| 2026-05-07 01:11 | 46.78494 | 23.69287 | 1032 ft | 0 kts | 250° |
| 2026-05-07 01:48 | 46.78497 | 23.69300 | 1033 ft | 2 kts | 250° |
| 2026-05-07 01:48 | 46.78501 | 23.69316 | 1033 ft | 2 kts | 250° |
| 2026-05-07 01:49 | 46.78506 | 23.69334 | 1033 ft | 2 kts | 259° |
| 2026-05-07 01:49 | 46.78505 | 23.69350 | 1033 ft | 2 kts | 304° |
| 2026-05-07 01:49 | 46.78498 | 23.69362 | 1033 ft | 2 kts | 335° |
| 2026-05-07 01:49 | 46.78495 | 23.69364 | 1033 ft | 0 kts | 343° |
| 2026-05-07 01:53 | 46.78511 | 23.69359 | 1032 ft | 5 kts | 351° |
| 2026-05-07 01:53 | 46.78560 | 23.69346 | 1032 ft | 9 kts | 343° |
| 2026-05-07 01:53 | 46.78600 | 23.69287 | 1032 ft | 9 kts | 277° |
| 2026-05-07 01:53 | 46.78589 | 23.69184 | 1032 ft | 11 kts | 259° |
| 2026-05-07 01:54 | 46.78575 | 23.69077 | 1032 ft | 11 kts | 258° |
| 2026-05-07 01:54 | 46.78561 | 23.68972 | 1032 ft | 10 kts | 259° |
| 2026-05-07 01:54 | 46.78547 | 23.68871 | 1032 ft | 10 kts | 259° |
| 2026-05-07 01:54 | 46.78533 | 23.68771 | 1032 ft | 10 kts | 258° |
| 2026-05-07 01:55 | 46.78520 | 23.68675 | 1032 ft | 10 kts | 259° |
| 2026-05-07 01:55 | 46.78506 | 23.68569 | 1032 ft | 11 kts | 259° |
| 2026-05-07 01:55 | 46.78490 | 23.68456 | 1032 ft | 11 kts | 259° |
| 2026-05-07 01:55 | 46.78475 | 23.68346 | 1032 ft | 11 kts | 259° |
| 2026-05-07 01:56 | 46.78461 | 23.68239 | 1032 ft | 11 kts | 259° |
| 2026-05-07 01:56 | 46.78445 | 23.68119 | 1032 ft | 14 kts | 259° |
| 2026-05-07 01:56 | 46.78424 | 23.67970 | 1032 ft | 15 kts | 259° |
| 2026-05-07 01:56 | 46.78405 | 23.67826 | 1032 ft | 14 kts | 259° |
| 2026-05-07 01:57 | 46.78386 | 23.67689 | 1032 ft | 13 kts | 259° |
| 2026-05-07 01:57 | 46.78368 | 23.67558 | 1032 ft | 13 kts | 258° |
| 2026-05-07 01:57 | 46.78351 | 23.67431 | 1032 ft | 13 kts | 258° |
| 2026-05-07 01:57 | 46.78341 | 23.67308 | 1032 ft | 12 kts | 276° |
| 2026-05-07 01:58 | 46.78384 | 23.67212 | 1032 ft | 12 kts | 344° |
| 2026-05-07 01:58 | 46.78465 | 23.67220 | 1032 ft | 11 kts | 32° |
| 2026-05-07 01:58 | 46.78483 | 23.67272 | 1032 ft | 0 kts | 77° |
| 2026-05-07 01:59 | 46.78548 | 23.67575 | 1032 ft | 74 kts | 71° |
| 2026-05-07 01:59 | 46.78902 | 23.69163 | 1062 ft | 167 kts | 73° |
| 2026-05-07 01:59 | 46.79283 | 23.70870 | 1822 ft | 169 kts | 72° |
| 2026-05-07 01:59 | 46.79658 | 23.72478 | 2801 ft | 175 kts | 74° |
| 2026-05-07 02:00 | 46.79923 | 23.73668 | 3064 ft | 199 kts | 75° |
| 2026-05-07 02:00 | 46.80548 | 23.76527 | 3419 ft | 241 kts | 74° |
| 2026-05-07 02:00 | 46.80904 | 23.78133 | 3563 ft | 261 kts | 74° |
| 2026-05-07 02:00 | 46.81488 | 23.80740 | 4206 ft | 276 kts | 73° |
| 2026-05-07 02:01 | 46.82098 | 23.83441 | 5141 ft | 281 kts | 73° |
| 2026-05-07 02:01 | 46.82847 | 23.86096 | 6103 ft | 286 kts | 56° |
| 2026-05-07 02:01 | 46.84286 | 23.88086 | 7057 ft | 287 kts | 27° |
| 2026-05-07 02:01 | 46.86156 | 23.88880 | 7986 ft | 286 kts | 360° |
| 2026-05-07 02:02 | 46.88094 | 23.88317 | 8897 ft | 285 kts | 333° |
| 2026-05-07 02:02 | 46.89809 | 23.86828 | 9824 ft | 288 kts | 324° |
| 2026-05-07 02:02 | 46.91476 | 23.85134 | 10481 ft | 301 kts | 323° |
| 2026-05-07 02:02 | 46.93252 | 23.83304 | 10685 ft | 328 kts | 323° |
| 2026-05-07 02:03 | 46.95214 | 23.81322 | 10922 ft | 352 kts | 324° |
| 2026-05-07 02:03 | 46.97258 | 23.79217 | 11495 ft | 362 kts | 318° |
| 2026-05-07 02:03 | 46.98840 | 23.76361 | 12268 ft | 362 kts | 295° |
| 2026-05-07 02:03 | 46.99569 | 23.72911 | 13132 ft | 360 kts | 274° |
| 2026-05-07 02:04 | 46.99394 | 23.69267 | 14002 ft | 360 kts | 254° |
| 2026-05-07 02:04 | 46.98389 | 23.65929 | 14772 ft | 362 kts | 235° |
| 2026-05-07 02:04 | 46.96797 | 23.63040 | 15549 ft | 367 kts | 229° |
| 2026-05-07 02:04 | 46.95090 | 23.60222 | 16289 ft | 372 kts | 228° |
| 2026-05-07 02:05 | 46.93345 | 23.57382 | 17039 ft | 377 kts | 228° |
| 2026-05-07 02:05 | 46.91585 | 23.54495 | 17797 ft | 382 kts | 229° |
| 2026-05-07 02:05 | 46.89837 | 23.51589 | 18493 ft | 386 kts | 229° |
| 2026-05-07 02:05 | 46.88054 | 23.48601 | 19164 ft | 390 kts | 229° |
| 2026-05-07 02:06 | 46.86260 | 23.45592 | 19843 ft | 393 kts | 229° |
| 2026-05-07 02:06 | 46.84473 | 23.42594 | 20482 ft | 397 kts | 229° |
| 2026-05-07 02:06 | 46.82648 | 23.39539 | 21115 ft | 400 kts | 229° |
| 2026-05-07 02:06 | 46.80803 | 23.36457 | 21739 ft | 404 kts | 229° |
| 2026-05-07 02:07 | 46.79101 | 23.33177 | 22303 ft | 408 kts | 241° |
| 2026-05-07 02:07 | 46.77470 | 23.25212 | 23500 ft | 414 kts | 258° |
| 2026-05-07 02:07 | 46.76894 | 23.21066 | 23980 ft | 418 kts | 258° |
| 2026-05-07 02:08 | 46.76307 | 23.16952 | 24473 ft | 421 kts | 257° |
| 2026-05-07 02:08 | 46.75679 | 23.12757 | 24975 ft | 423 kts | 257° |
| 2026-05-07 02:08 | 46.75029 | 23.08570 | 25471 ft | 425 kts | 255° |
| 2026-05-07 02:08 | 46.73888 | 23.04590 | 25903 ft | 428 kts | 239° |
| 2026-05-07 02:09 | 46.72024 | 23.01186 | 26385 ft | 431 kts | 224° |
| 2026-05-07 02:09 | 46.69641 | 22.98571 | 26852 ft | 434 kts | 215° |
| 2026-05-07 02:09 | 46.67098 | 22.96137 | 27264 ft | 438 kts | 214° |
| 2026-05-07 02:09 | 46.64527 | 22.93744 | 27668 ft | 441 kts | 214° |
| 2026-05-07 02:10 | 46.61931 | 22.91337 | 28068 ft | 443 kts | 214° |
| 2026-05-07 02:10 | 46.59321 | 22.88904 | 28484 ft | 445 kts | 214° |
| 2026-05-07 02:10 | 46.56740 | 22.86481 | 28873 ft | 447 kts | 214° |
| 2026-05-07 02:10 | 46.54118 | 22.84003 | 29243 ft | 450 kts | 215° |
| 2026-05-07 02:11 | 46.51492 | 22.81514 | 29610 ft | 452 kts | 215° |
| 2026-05-07 02:11 | 46.48854 | 22.79008 | 30033 ft | 452 kts | 215° |
| 2026-05-07 02:11 | 46.46218 | 22.76505 | 30502 ft | 450 kts | 215° |
| 2026-05-07 02:11 | 46.43607 | 22.74028 | 30991 ft | 447 kts | 215° |
| 2026-05-07 02:12 | 46.41033 | 22.71589 | 31430 ft | 446 kts | 215° |
| 2026-05-07 02:12 | 46.38439 | 22.69133 | 31807 ft | 446 kts | 215° |
| 2026-05-07 02:12 | 46.35837 | 22.66673 | 32213 ft | 445 kts | 216° |
| 2026-05-07 02:12 | 46.33251 | 22.64231 | 32664 ft | 443 kts | 216° |
| 2026-05-07 02:13 | 46.30665 | 22.61794 | 33130 ft | 441 kts | 216° |
| 2026-05-07 02:13 | 46.28096 | 22.59374 | 33544 ft | 440 kts | 216° |
| 2026-05-07 02:13 | 46.25558 | 22.56986 | 33936 ft | 439 kts | 216° |
| 2026-05-07 02:13 | 46.22991 | 22.54574 | 34284 ft | 438 kts | 216° |
| 2026-05-07 02:14 | 46.20432 | 22.52172 | 34612 ft | 437 kts | 216° |
| 2026-05-07 02:14 | 46.17885 | 22.49783 | 34920 ft | 437 kts | 217° |
| 2026-05-07 02:14 | 46.15330 | 22.47389 | 35222 ft | 437 kts | 217° |
| 2026-05-07 02:14 | 46.12811 | 22.45033 | 35553 ft | 436 kts | 217° |
| 2026-05-07 02:15 | 46.10254 | 22.42643 | 35889 ft | 435 kts | 217° |
| 2026-05-07 02:15 | 46.07715 | 22.40274 | 36187 ft | 435 kts | 216° |
| 2026-05-07 02:15 | 46.05174 | 22.37905 | 36481 ft | 435 kts | 217° |
| 2026-05-07 02:15 | 46.02629 | 22.35534 | 36782 ft | 434 kts | 217° |
| 2026-05-07 02:16 | 46.00092 | 22.33173 | 37074 ft | 434 kts | 216° |
| 2026-05-07 02:16 | 45.97585 | 22.30843 | 37366 ft | 434 kts | 216° |
| 2026-05-07 02:16 | 45.95048 | 22.28488 | 37636 ft | 434 kts | 216° |
| 2026-05-07 02:16 | 45.92508 | 22.26132 | 37916 ft | 434 kts | 216° |
| 2026-05-07 02:17 | 45.89967 | 22.23779 | 38183 ft | 434 kts | 216° |
| 2026-05-07 02:17 | 45.87434 | 22.21435 | 38449 ft | 434 kts | 216° |
| 2026-05-07 02:17 | 45.84882 | 22.19076 | 38671 ft | 434 kts | 216° |
| 2026-05-07 02:17 | 45.82338 | 22.16727 | 38876 ft | 435 kts | 216° |
| 2026-05-07 02:18 | 45.79823 | 22.14408 | 39055 ft | 435 kts | 216° |
| 2026-05-07 02:18 | 45.77281 | 22.12066 | 39252 ft | 435 kts | 215° |
| 2026-05-07 02:18 | 45.74730 | 22.09718 | 39432 ft | 435 kts | 216° |
| 2026-05-07 02:18 | 45.72179 | 22.07373 | 39605 ft | 436 kts | 215° |
| 2026-05-07 02:19 | 45.69627 | 22.05030 | 39787 ft | 436 kts | 215° |
| 2026-05-07 02:19 | 45.67067 | 22.02682 | 39958 ft | 436 kts | 215° |
| 2026-05-07 02:19 | 45.61931 | 21.97980 | 39961 ft | 437 kts | 215° |
| 2026-05-07 02:20 | 45.56846 | 21.93335 | 39965 ft | 436 kts | 215° |
| 2026-05-07 02:20 | 45.51733 | 21.88673 | 39970 ft | 435 kts | 215° |
| 2026-05-07 02:21 | 45.46627 | 21.84029 | 39969 ft | 434 kts | 215° |
| 2026-05-07 02:21 | 45.41558 | 21.79428 | 39974 ft | 434 kts | 215° |
| 2026-05-07 02:22 | 45.36459 | 21.74809 | 39973 ft | 434 kts | 215° |
| 2026-05-07 02:22 | 45.31356 | 21.70197 | 39979 ft | 434 kts | 215° |
| 2026-05-07 02:23 | 45.26284 | 21.65623 | 39980 ft | 434 kts | 215° |
| 2026-05-07 02:23 | 45.21184 | 21.61033 | 39985 ft | 434 kts | 215° |
| 2026-05-07 02:24 | 45.16076 | 21.56445 | 39991 ft | 434 kts | 215° |
| 2026-05-07 02:24 | 45.10998 | 21.51895 | 39988 ft | 434 kts | 215° |
| 2026-05-07 02:25 | 45.05881 | 21.47317 | 39991 ft | 434 kts | 215° |
| 2026-05-07 02:25 | 45.00906 | 21.42507 | 39981 ft | 430 kts | 226° |
| 2026-05-07 02:26 | 44.97260 | 21.36002 | 39989 ft | 424 kts | 244° |
| 2026-05-07 02:26 | 44.94889 | 21.28409 | 39990 ft | 422 kts | 249° |
| 2026-05-07 02:27 | 44.92637 | 21.20763 | 39989 ft | 422 kts | 249° |
| 2026-05-07 02:27 | 44.90373 | 21.13173 | 39982 ft | 422 kts | 248° |
| 2026-05-07 02:28 | 44.88062 | 21.05536 | 39986 ft | 422 kts | 248° |
| 2026-05-07 02:28 | 44.85738 | 20.97910 | 39991 ft | 422 kts | 248° |
| 2026-05-07 02:29 | 44.83430 | 20.90368 | 39990 ft | 422 kts | 248° |
| 2026-05-07 02:29 | 44.81094 | 20.82757 | 39994 ft | 422 kts | 248° |
| 2026-05-07 02:30 | 44.78759 | 20.75170 | 39992 ft | 422 kts | 248° |
| 2026-05-07 02:30 | 44.76434 | 20.67640 | 39997 ft | 421 kts | 248° |
| 2026-05-07 02:31 | 44.74094 | 20.60078 | 39998 ft | 421 kts | 248° |
| 2026-05-07 02:31 | 44.71747 | 20.52519 | 39998 ft | 421 kts | 248° |
| 2026-05-07 02:32 | 44.69400 | 20.44981 | 39998 ft | 420 kts | 248° |
| 2026-05-07 02:32 | 44.67058 | 20.37481 | 39995 ft | 420 kts | 248° |
| 2026-05-07 02:33 | 44.64702 | 20.29959 | 39997 ft | 420 kts | 247° |
| 2026-05-07 02:33 | 44.62343 | 20.22451 | 39997 ft | 420 kts | 247° |
| 2026-05-07 02:34 | 44.59983 | 20.14957 | 39998 ft | 419 kts | 247° |
| 2026-05-07 02:34 | 44.57635 | 20.07527 | 39997 ft | 418 kts | 247° |
| 2026-05-07 02:35 | 44.55273 | 20.00072 | 40002 ft | 417 kts | 247° |
| 2026-05-07 02:35 | 44.52912 | 19.92641 | 39998 ft | 416 kts | 247° |
| 2026-05-07 02:36 | 44.50552 | 19.85233 | 39999 ft | 416 kts | 246° |
| 2026-05-07 02:36 | 44.48191 | 19.77845 | 40001 ft | 415 kts | 246° |
| 2026-05-07 02:37 | 44.45833 | 19.70487 | 40000 ft | 414 kts | 246° |
| 2026-05-07 02:37 | 44.43489 | 19.63192 | 39998 ft | 413 kts | 246° |
| 2026-05-07 02:38 | 44.41123 | 19.55851 | 40000 ft | 412 kts | 246° |
| 2026-05-07 02:38 | 44.38760 | 19.48539 | 39996 ft | 412 kts | 246° |
| 2026-05-07 02:39 | 44.36410 | 19.41287 | 39996 ft | 411 kts | 246° |
| 2026-05-07 02:39 | 44.34045 | 19.34007 | 39994 ft | 411 kts | 246° |
| 2026-05-07 02:40 | 44.31680 | 19.26749 | 40006 ft | 410 kts | 246° |
| 2026-05-07 02:40 | 44.29308 | 19.19489 | 40005 ft | 411 kts | 245° |
| 2026-05-07 02:41 | 44.26933 | 19.12241 | 40009 ft | 411 kts | 246° |
| 2026-05-07 02:41 | 44.24563 | 19.05026 | 39994 ft | 411 kts | 245° |
| 2026-05-07 02:42 | 44.22172 | 18.97769 | 40000 ft | 412 kts | 245° |
| 2026-05-07 02:42 | 44.19769 | 18.90493 | 40006 ft | 412 kts | 245° |
| 2026-05-07 02:43 | 44.17377 | 18.83272 | 39999 ft | 413 kts | 245° |
| 2026-05-07 02:43 | 44.14961 | 18.75996 | 40004 ft | 414 kts | 245° |
| 2026-05-07 02:44 | 44.12531 | 18.68700 | 40009 ft | 415 kts | 245° |
| 2026-05-07 02:44 | 44.10110 | 18.61451 | 40011 ft | 415 kts | 245° |
| 2026-05-07 02:45 | 44.07667 | 18.54154 | 40016 ft | 415 kts | 245° |
| 2026-05-07 02:45 | 44.05222 | 18.46874 | 40031 ft | 415 kts | 244° |
| 2026-05-07 02:46 | 44.02783 | 18.39629 | 40038 ft | 415 kts | 244° |
| 2026-05-07 02:46 | 44.00325 | 18.32348 | 40036 ft | 416 kts | 244° |
| 2026-05-07 02:47 | 43.97864 | 18.25076 | 40034 ft | 416 kts | 244° |
| 2026-05-07 02:47 | 43.95406 | 18.17835 | 40045 ft | 416 kts | 244° |
| 2026-05-07 02:48 | 43.92930 | 18.10561 | 40041 ft | 416 kts | 244° |
| 2026-05-07 02:48 | 43.90452 | 18.03297 | 40034 ft | 416 kts | 244° |
| 2026-05-07 02:49 | 43.87969 | 17.96041 | 40033 ft | 417 kts | 244° |
| 2026-05-07 02:49 | 43.85900 | 17.90009 | 40020 ft | 417 kts | 244° |
| 2026-05-07 02:50 | 43.83405 | 17.82752 | 40021 ft | 417 kts | 244° |
| 2026-05-07 02:50 | 43.80900 | 17.75487 | 40038 ft | 417 kts | 243° |
| 2026-05-07 02:51 | 43.78404 | 17.68267 | 40028 ft | 418 kts | 243° |
| 2026-05-07 02:51 | 43.75888 | 17.61008 | 40024 ft | 418 kts | 243° |
| 2026-05-07 02:52 | 43.73369 | 17.53758 | 40031 ft | 418 kts | 243° |
| 2026-05-07 02:52 | 43.70845 | 17.46514 | 40036 ft | 417 kts | 243° |
| 2026-05-07 02:53 | 43.68337 | 17.39335 | 40042 ft | 417 kts | 243° |
| 2026-05-07 02:53 | 43.65808 | 17.32116 | 40036 ft | 417 kts | 243° |
| 2026-05-07 02:54 | 43.63273 | 17.24897 | 40039 ft | 417 kts | 243° |
| 2026-05-07 02:54 | 43.60737 | 17.17694 | 40041 ft | 417 kts | 243° |
| 2026-05-07 02:55 | 43.58211 | 17.10533 | 40032 ft | 417 kts | 243° |
| 2026-05-07 02:55 | 43.55662 | 17.03337 | 40034 ft | 417 kts | 242° |
| 2026-05-07 02:56 | 43.52931 | 16.96273 | 40029 ft | 417 kts | 240° |
| 2026-05-07 02:56 | 43.50109 | 16.89290 | 40023 ft | 417 kts | 240° |
| 2026-05-07 02:57 | 43.47306 | 16.82325 | 40017 ft | 418 kts | 240° |
| 2026-05-07 02:57 | 43.44502 | 16.75316 | 40013 ft | 418 kts | 240° |
| 2026-05-07 02:58 | 43.41698 | 16.68303 | 40004 ft | 418 kts | 240° |
| 2026-05-07 02:58 | 43.38890 | 16.61290 | 39998 ft | 419 kts | 240° |
| 2026-05-07 02:59 | 43.36089 | 16.54315 | 40003 ft | 419 kts | 240° |
| 2026-05-07 02:59 | 43.33259 | 16.47283 | 39997 ft | 420 kts | 240° |
| 2026-05-07 03:00 | 43.30425 | 16.40259 | 39993 ft | 420 kts | 240° |
| 2026-05-07 03:00 | 43.27595 | 16.33263 | 39994 ft | 420 kts | 240° |
| 2026-05-07 03:01 | 43.24753 | 16.26255 | 39989 ft | 420 kts | 240° |
| 2026-05-07 03:01 | 43.21907 | 16.19252 | 39985 ft | 420 kts | 240° |
| 2026-05-07 03:02 | 43.19058 | 16.12263 | 39978 ft | 420 kts | 240° |
| 2026-05-07 03:02 | 43.16204 | 16.05274 | 39977 ft | 419 kts | 240° |
| 2026-05-07 03:03 | 43.13349 | 15.98302 | 39970 ft | 419 kts | 240° |
| 2026-05-07 03:03 | 43.10505 | 15.91373 | 39969 ft | 419 kts | 240° |
| 2026-05-07 03:04 | 43.07642 | 15.84414 | 39964 ft | 419 kts | 240° |
| 2026-05-07 03:04 | 43.04782 | 15.77477 | 39960 ft | 419 kts | 240° |
| 2026-05-07 03:05 | 43.01912 | 15.70536 | 39960 ft | 419 kts | 240° |
| 2026-05-07 03:05 | 42.99058 | 15.63646 | 39961 ft | 418 kts | 240° |
| 2026-05-07 03:06 | 42.96181 | 15.56719 | 39953 ft | 419 kts | 240° |
| 2026-05-07 03:06 | 42.93305 | 15.49807 | 39950 ft | 419 kts | 240° |
| 2026-05-07 03:07 | 42.90439 | 15.42939 | 39948 ft | 419 kts | 240° |
| 2026-05-07 03:07 | 42.87541 | 15.36030 | 39948 ft | 419 kts | 240° |
| 2026-05-07 03:08 | 42.84634 | 15.29120 | 39941 ft | 419 kts | 240° |
| 2026-05-07 03:08 | 42.81750 | 15.22273 | 39937 ft | 419 kts | 240° |
| 2026-05-07 03:09 | 42.78842 | 15.15386 | 39938 ft | 419 kts | 240° |
| 2026-05-07 03:09 | 42.75923 | 15.08487 | 39936 ft | 419 kts | 240° |
| 2026-05-07 03:10 | 42.73028 | 15.01659 | 39934 ft | 419 kts | 240° |
| 2026-05-07 03:10 | 42.70110 | 14.94790 | 39939 ft | 419 kts | 240° |
| 2026-05-07 03:11 | 42.67190 | 14.87922 | 39935 ft | 419 kts | 240° |
| 2026-05-07 03:11 | 42.64329 | 14.81006 | 39940 ft | 419 kts | 240° |
| 2026-05-07 03:12 | 42.61494 | 14.74150 | 39939 ft | 419 kts | 240° |
| 2026-05-07 03:12 | 42.58621 | 14.67253 | 39945 ft | 419 kts | 240° |
| 2026-05-07 03:13 | 42.55764 | 14.60417 | 39949 ft | 419 kts | 240° |
| 2026-05-07 03:13 | 42.52883 | 14.53530 | 39929 ft | 419 kts | 240° |
| 2026-05-07 03:14 | 42.51429 | 14.50061 | 39437 ft | 424 kts | 240° |
| 2026-05-07 03:14 | 42.49978 | 14.46603 | 38881 ft | 421 kts | 240° |
| 2026-05-07 03:14 | 42.47084 | 14.39713 | 37430 ft | 418 kts | 240° |
| 2026-05-07 03:15 | 42.45665 | 14.36340 | 36775 ft | 416 kts | 239° |
| 2026-05-07 03:15 | 42.44237 | 14.32953 | 36110 ft | 414 kts | 239° |
| 2026-05-07 03:15 | 42.42810 | 14.29579 | 35421 ft | 412 kts | 239° |
| 2026-05-07 03:15 | 42.41381 | 14.26208 | 34670 ft | 413 kts | 238° |
| 2026-05-07 03:16 | 42.39951 | 14.22838 | 33888 ft | 413 kts | 238° |
| 2026-05-07 03:16 | 42.38517 | 14.19461 | 32983 ft | 414 kts | 238° |
| 2026-05-07 03:16 | 42.37080 | 14.16086 | 32136 ft | 414 kts | 238° |
| 2026-05-07 03:16 | 42.35636 | 14.12715 | 31268 ft | 414 kts | 238° |
| 2026-05-07 03:17 | 42.34181 | 14.09333 | 30350 ft | 416 kts | 238° |
| 2026-05-07 03:17 | 42.32724 | 14.05951 | 29572 ft | 414 kts | 238° |
| 2026-05-07 03:17 | 42.31287 | 14.02613 | 28850 ft | 408 kts | 238° |
| 2026-05-07 03:17 | 42.29866 | 13.99316 | 28177 ft | 403 kts | 238° |
| 2026-05-07 03:18 | 42.28466 | 13.96067 | 27512 ft | 398 kts | 238° |
| 2026-05-07 03:18 | 42.27099 | 13.92900 | 26868 ft | 393 kts | 238° |
| 2026-05-07 03:18 | 42.25714 | 13.89698 | 26216 ft | 389 kts | 239° |
| 2026-05-07 03:18 | 42.24358 | 13.86549 | 25570 ft | 386 kts | 239° |
| 2026-05-07 03:19 | 42.23019 | 13.83416 | 24943 ft | 383 kts | 239° |
| 2026-05-07 03:19 | 42.21706 | 13.80345 | 24303 ft | 381 kts | 239° |
| 2026-05-07 03:19 | 42.20387 | 13.77267 | 23678 ft | 378 kts | 239° |
| 2026-05-07 03:19 | 42.19089 | 13.74195 | 22950 ft | 376 kts | 242° |
| 2026-05-07 03:20 | 42.18046 | 13.70970 | 22293 ft | 373 kts | 248° |
| 2026-05-07 03:20 | 42.17133 | 13.67685 | 21639 ft | 371 kts | 249° |
| 2026-05-07 03:20 | 42.16247 | 13.64475 | 21024 ft | 368 kts | 249° |
| 2026-05-07 03:20 | 42.15354 | 13.61255 | 20379 ft | 365 kts | 248° |
| 2026-05-07 03:21 | 42.14462 | 13.58061 | 19801 ft | 362 kts | 249° |
| 2026-05-07 03:21 | 42.13572 | 13.54892 | 19185 ft | 361 kts | 249° |
| 2026-05-07 03:21 | 42.12685 | 13.51745 | 18561 ft | 359 kts | 249° |
| 2026-05-07 03:21 | 42.11795 | 13.48597 | 17892 ft | 358 kts | 249° |
| 2026-05-07 03:22 | 42.10920 | 13.45508 | 17253 ft | 356 kts | 249° |
| 2026-05-07 03:22 | 42.10043 | 13.42416 | 16843 ft | 347 kts | 249° |
| 2026-05-07 03:22 | 42.09200 | 13.39446 | 16700 ft | 333 kts | 249° |
| 2026-05-07 03:22 | 42.08388 | 13.36584 | 16556 ft | 320 kts | 249° |
| 2026-05-07 03:23 | 42.07605 | 13.33831 | 16430 ft | 308 kts | 249° |
| 2026-05-07 03:23 | 42.06851 | 13.31190 | 16293 ft | 297 kts | 249° |
| 2026-05-07 03:23 | 42.06121 | 13.28637 | 16164 ft | 286 kts | 248° |
| 2026-05-07 03:23 | 42.05254 | 13.26278 | 15826 ft | 284 kts | 240° |
| 2026-05-07 03:24 | 42.04221 | 13.24032 | 15507 ft | 281 kts | 238° |
| 2026-05-07 03:24 | 42.03188 | 13.21812 | 15168 ft | 279 kts | 239° |
| 2026-05-07 03:24 | 42.02177 | 13.19597 | 14933 ft | 273 kts | 239° |
| 2026-05-07 03:24 | 42.01205 | 13.17441 | 14801 ft | 264 kts | 240° |
| 2026-05-07 03:25 | 42.00273 | 13.15349 | 14701 ft | 256 kts | 243° |
| 2026-05-07 03:25 | 41.99795 | 13.13135 | 14543 ft | 250 kts | 263° |
| 2026-05-07 03:25 | 41.99879 | 13.10818 | 14374 ft | 248 kts | 278° |
| 2026-05-07 03:25 | 42.00237 | 13.08552 | 14106 ft | 247 kts | 280° |
| 2026-05-07 03:26 | 42.00624 | 13.06273 | 13841 ft | 253 kts | 280° |
| 2026-05-07 03:26 | 42.01021 | 13.03928 | 13527 ft | 260 kts | 280° |
| 2026-05-07 03:26 | 42.01420 | 13.01522 | 13195 ft | 265 kts | 280° |
| 2026-05-07 03:26 | 42.01813 | 12.99131 | 12852 ft | 264 kts | 280° |
| 2026-05-07 03:27 | 42.02205 | 12.96713 | 12550 ft | 264 kts | 280° |
| 2026-05-07 03:27 | 42.02596 | 12.94286 | 12247 ft | 264 kts | 280° |
| 2026-05-07 03:27 | 42.02987 | 12.91862 | 11926 ft | 264 kts | 281° |
| 2026-05-07 03:27 | 42.03403 | 12.89451 | 11626 ft | 265 kts | 281° |
| 2026-05-07 03:28 | 42.03832 | 12.87042 | 11325 ft | 264 kts | 282° |
| 2026-05-07 03:28 | 42.04256 | 12.84664 | 11034 ft | 265 kts | 282° |
| 2026-05-07 03:28 | 42.04685 | 12.82249 | 10731 ft | 265 kts | 282° |
| 2026-05-07 03:28 | 42.05114 | 12.79829 | 10455 ft | 265 kts | 282° |
| 2026-05-07 03:29 | 42.05539 | 12.77424 | 10319 ft | 260 kts | 282° |
| 2026-05-07 03:29 | 42.05951 | 12.75085 | 10191 ft | 254 kts | 282° |
| 2026-05-07 03:29 | 42.06349 | 12.72819 | 10066 ft | 248 kts | 282° |
| 2026-05-07 03:29 | 42.06739 | 12.70593 | 9885 ft | 244 kts | 282° |
| 2026-05-07 03:30 | 42.07140 | 12.68302 | 9314 ft | 257 kts | 282° |
| 2026-05-07 03:30 | 42.07556 | 12.65919 | 8777 ft | 266 kts | 282° |
| 2026-05-07 03:30 | 42.07987 | 12.63456 | 8234 ft | 274 kts | 282° |
| 2026-05-07 03:30 | 42.08428 | 12.60928 | 7672 ft | 282 kts | 282° |
| 2026-05-07 03:31 | 42.08880 | 12.58330 | 7091 ft | 284 kts | 282° |
| 2026-05-07 03:31 | 42.09095 | 12.55725 | 6491 ft | 279 kts | 262° |
| 2026-05-07 03:31 | 42.08470 | 12.53296 | 5971 ft | 271 kts | 237° |
| 2026-05-07 03:31 | 42.07255 | 12.51482 | 5639 ft | 260 kts | 218° |
| 2026-05-07 03:32 | 42.05696 | 12.50373 | 5323 ft | 249 kts | 201° |
| 2026-05-07 03:32 | 42.04095 | 12.49585 | 5021 ft | 241 kts | 200° |
| 2026-05-07 03:32 | 42.02547 | 12.48835 | 4734 ft | 232 kts | 200° |
| 2026-05-07 03:32 | 42.01055 | 12.48109 | 4478 ft | 222 kts | 200° |
| 2026-05-07 03:33 | 41.99651 | 12.47422 | 4220 ft | 208 kts | 200° |
| 2026-05-07 03:33 | 41.98279 | 12.47119 | 3945 ft | 196 kts | 172° |
| 2026-05-07 03:33 | 41.97013 | 12.47620 | 3741 ft | 185 kts | 156° |
| 2026-05-07 03:33 | 41.95899 | 12.48378 | 3542 ft | 174 kts | 154° |
| 2026-05-07 03:34 | 41.94877 | 12.49116 | 3418 ft | 159 kts | 154° |
| 2026-05-07 03:34 | 41.93926 | 12.49794 | 3278 ft | 153 kts | 154° |
| 2026-05-07 03:34 | 41.93006 | 12.50439 | 3105 ft | 145 kts | 155° |
| 2026-05-07 03:34 | 41.92123 | 12.51051 | 2911 ft | 140 kts | 155° |
| 2026-05-07 03:35 | 41.91287 | 12.51630 | 2735 ft | 131 kts | 155° |
| 2026-05-07 03:35 | 41.90505 | 12.52171 | 2561 ft | 125 kts | 155° |
| 2026-05-07 03:35 | 41.89732 | 12.52705 | 2414 ft | 123 kts | 155° |
| 2026-05-07 03:35 | 41.88983 | 12.53224 | 2240 ft | 121 kts | 155° |
| 2026-05-07 03:36 | 41.88228 | 12.53745 | 2076 ft | 123 kts | 154° |
| 2026-05-07 03:36 | 41.87468 | 12.54271 | 1906 ft | 122 kts | 154° |
| 2026-05-07 03:36 | 41.86710 | 12.54796 | 1744 ft | 123 kts | 154° |
| 2026-05-07 03:36 | 41.85941 | 12.55327 | 1565 ft | 124 kts | 154° |
| 2026-05-07 03:37 | 41.85183 | 12.55853 | 1402 ft | 125 kts | 154° |
| 2026-05-07 03:37 | 41.84398 | 12.56396 | 1228 ft | 128 kts | 153° |
| 2026-05-07 03:37 | 41.83600 | 12.56948 | 1057 ft | 130 kts | 153° |
| 2026-05-07 03:37 | 41.83067 | 12.57317 | 926 ft | 130 kts | 153° |
| 2026-05-07 03:38 | 41.81995 | 12.58059 | 687 ft | 132 kts | 151° |
| 2026-05-07 03:38 | 41.81167 | 12.58634 | 512 ft | 135 kts | 150° |
| 2026-05-07 03:38 | 41.80334 | 12.59211 | 414 ft | 130 kts | 151° |
| 2026-05-07 03:38 | 41.79853 | 12.59550 | 416 ft | 101 kts | 154° |
| 2026-05-07 03:39 | 41.79387 | 12.59861 | 409 ft | 49 kts | 153° |
| 2026-05-07 03:39 | 41.79136 | 12.60033 | 412 ft | 24 kts | 153° |
| 2026-05-07 03:39 | 41.79044 | 12.60008 | 404 ft | 15 kts | 244° |
| 2026-05-07 03:39 | 41.79038 | 12.59903 | 403 ft | 9 kts | 314° |
| 2026-05-07 03:40 | 41.79092 | 12.59864 | 406 ft | 9 kts | 332° |
| 2026-05-07 03:40 | 41.79145 | 12.59826 | 406 ft | 9 kts | 332° |
| 2026-05-07 03:40 | 41.79197 | 12.59790 | 404 ft | 8 kts | 333° |
| 2026-05-07 03:40 | 41.79260 | 12.59747 | 406 ft | 12 kts | 333° |
| 2026-05-07 03:41 | 41.79336 | 12.59696 | 406 ft | 12 kts | 333° |
| 2026-05-07 03:41 | 41.79410 | 12.59645 | 403 ft | 12 kts | 333° |
| 2026-05-07 03:41 | 41.79482 | 12.59596 | 403 ft | 11 kts | 333° |
| 2026-05-07 03:41 | 41.79536 | 12.59560 | 406 ft | 0 kts | 333° |
| 2026-05-07 03:42 | 41.79542 | 12.59554 | 406 ft | 8 kts | 325° |
| 2026-05-07 03:42 | 41.79511 | 12.59443 | 405 ft | 17 kts | 227° |
| 2026-05-07 03:42 | 41.79436 | 12.59387 | 405 ft | 10 kts | 166° |
| 2026-05-07 03:42 | 41.79384 | 12.59446 | 405 ft | 10 kts | 139° |
| 2026-05-07 03:43 | 41.79353 | 12.59482 | 405 ft | 4 kts | 105° |
| 2026-05-07 03:43 | 41.79369 | 12.59512 | 401 ft | 4 kts | 52° |
| 2026-05-07 03:43 | 41.79383 | 12.59536 | 405 ft | 0 kts | 52° |